Terminal Aerodrome Forecast
Issued by NWS

Home | Current Version | Previous Version | Text Only | Print | Product List | Glossary On
Versions: 1 2 3 4 5 6 7 8 9 10 11 12 13 14 15 16 17 18 19 20 21 22 23 24 25 26 27 28 29 30 31 32 33 34 35
569
FTUS43 KDLH 120900 AAB
TAFHIB
TAF AMD
KHIB 120900Z 1209/1306 32009KT P6SM VCSH BKN010
     FM121200 32006KT P6SM SCT010
     FM121500 29005KT P6SM SCT030 BKN090
     FM121800 28005KT P6SM SCT025 BKN070
     FM122200 19004KT P6SM BKN025
     FM130200 VRB03KT 3SM -SN BKN015 OVC025=

USA.gov is the U.S. government's official web portal to all federal, state and local government web resources and services.